createdAt,value
2019-02-18T00:01:12.783Z,10.90
2019-02-18T00:03:43.075Z,10.23
2019-02-18T00:06:13.403Z,9.33
2019-02-18T00:08:43.775Z,10.70
2019-02-18T00:11:14.222Z,11.03
2019-02-18T00:13:46.211Z,12.17
2019-02-18T00:16:16.537Z,10.23
2019-02-18T00:18:46.954Z,11.50
2019-02-18T00:21:17.823Z,10.67
2019-02-18T00:23:48.146Z,10.80
2019-02-18T00:26:18.043Z,11.13
2019-02-18T00:28:48.296Z,10.60
2019-02-18T00:31:18.067Z,11.33
2019-02-18T00:33:48.495Z,11.47
2019-02-18T00:36:18.615Z,11.43
2019-02-18T00:38:48.872Z,10.27
2019-02-18T00:41:18.722Z,11.73
2019-02-18T00:43:48.989Z,10.97
2019-02-18T00:46:19.402Z,11.23
2019-02-18T00:48:49.806Z,10.77
2019-02-18T00:51:21.408Z,10.20
2019-02-18T00:53:51.731Z,10.33
2019-02-18T00:56:22.385Z,8.57
2019-02-18T00:58:52.647Z,8.93
2019-02-18T01:01:22.547Z,8.07
2019-02-18T01:03:52.127Z,8.57
2019-02-18T01:06:22.693Z,7.80
2019-02-18T01:08:53.033Z,8.13
2019-02-18T01:11:22.708Z,7.53
2019-02-18T01:13:52.957Z,6.23
2019-02-18T01:16:22.896Z,5.67
2019-02-18T01:18:53.137Z,5.83
2019-02-18T01:21:23.450Z,6.40
2019-02-18T01:23:53.785Z,6.70
2019-02-18T01:26:23.434Z,5.40
2019-02-18T01:28:53.670Z,4.47
2019-02-18T01:31:23.275Z,4.50
2019-02-18T01:33:53.521Z,5.23
2019-02-18T01:36:23.852Z,5.23
2019-02-18T01:38:54.138Z,5.13
2019-02-18T01:41:24.474Z,5.63
2019-02-18T01:43:54.800Z,6.73
2019-02-18T01:46:25.115Z,6.73
2019-02-18T01:48:55.458Z,6.90
2019-02-18T01:51:25.795Z,6.45
2019-02-18T01:53:56.103Z,6.10
2019-02-18T01:56:26.420Z,5.83
2019-02-18T01:58:56.748Z,6.50
2019-02-18T02:01:27.063Z,6.33
2019-02-18T02:03:57.352Z,5.57
2019-02-18T02:06:27.270Z,6.97
2019-02-18T02:08:57.497Z,7.80
2019-02-18T02:11:27.384Z,9.13
2019-02-18T02:13:57.593Z,8.20
2019-02-18T02:16:27.919Z,8.60
2019-02-18T02:18:58.226Z,9.20
2019-02-18T02:21:28.543Z,9.93
2019-02-18T02:23:58.615Z,10.50
2019-02-18T02:26:28.843Z,10.73
2019-02-18T02:28:59.223Z,12.57
2019-02-18T02:31:29.544Z,12.28
2019-02-18T02:33:59.224Z,13.93
2019-02-18T02:36:29.453Z,13.47
2019-02-18T02:38:59.571Z,13.53
2019-02-18T02:41:29.808Z,15.47
2019-02-18T02:44:00.141Z,15.00
2019-02-18T02:46:30.799Z,15.13
2019-02-18T02:49:00.472Z,15.90
2019-02-18T02:51:30.684Z,15.70
2019-02-18T02:54:00.376Z,16.67
2019-02-18T02:56:30.594Z,15.37
2019-02-18T02:59:00.282Z,14.73
2019-02-18T03:01:30.500Z,15.60
2019-02-18T03:04:00.172Z,15.67
2019-02-18T03:06:30.431Z,15.90
2019-02-18T03:09:00.075Z,17.13
2019-02-18T03:11:30.277Z,17.20
2019-02-18T03:14:00.599Z,17.87
2019-02-18T03:16:30.256Z,16.52
2019-02-18T03:19:00.472Z,17.13
2019-02-18T03:21:30.152Z,15.90
2019-02-18T03:24:00.374Z,15.40
2019-02-18T03:26:30.015Z,16.10
2019-02-18T03:29:59.250Z,15.73
2019-02-18T03:32:32.024Z,16.42
2019-02-18T03:35:02.296Z,17.53
2019-02-18T03:37:31.952Z,19.17
2019-02-18T03:40:02.227Z,20.40
2019-02-18T03:42:32.546Z,21.33
2019-02-18T03:45:02.231Z,22.77
2019-02-18T03:47:32.466Z,22.73
2019-02-18T03:50:02.124Z,22.00
2019-02-18T03:52:32.325Z,24.80
2019-02-18T03:55:02.642Z,25.90
2019-02-18T03:57:32.966Z,25.57
2019-02-18T04:00:03.288Z,25.40
2019-02-18T04:02:33.611Z,27.47
2019-02-18T04:05:04.106Z,26.43
2019-02-18T04:07:33.782Z,27.10
2019-02-18T04:10:04.151Z,27.27
2019-02-18T04:12:34.656Z,26.80
2019-02-18T04:15:05.372Z,28.27
2019-02-18T04:17:35.711Z,26.83
2019-02-18T04:20:06.136Z,27.43
2019-02-18T04:22:36.473Z,27.90
2019-02-18T04:25:06.789Z,24.73
2019-02-18T04:27:37.145Z,27.27
2019-02-18T04:30:07.755Z,26.57
2019-02-18T04:32:38.075Z,25.43
2019-02-18T04:35:08.423Z,25.90
2019-02-18T04:37:38.109Z,25.10
2019-02-18T04:40:08.360Z,23.93
2019-02-18T04:42:38.685Z,23.50
2019-02-18T04:45:09.023Z,23.67
2019-02-18T04:47:39.368Z,23.97
2019-02-18T04:50:09.795Z,23.00
2019-02-18T04:52:40.106Z,22.73
2019-02-18T04:55:10.576Z,24.00
2019-02-18T04:57:40.908Z,23.40
2019-02-18T05:00:11.432Z,22.03
2019-02-18T05:02:41.095Z,24.63
2019-02-18T05:05:11.457Z,24.30
2019-02-18T05:07:41.805Z,22.57
2019-02-18T05:10:12.137Z,25.27
2019-02-18T05:12:41.806Z,26.47
2019-02-18T05:15:12.023Z,27.03
2019-02-18T05:17:41.709Z,29.30
2019-02-18T05:20:11.994Z,27.63
2019-02-18T05:22:41.627Z,27.87
2019-02-18T05:25:12.971Z,27.33
2019-02-18T05:27:42.834Z,27.23
2019-02-18T05:30:13.089Z,28.13
2019-02-18T05:32:42.823Z,30.17
2019-02-18T05:35:12.394Z,27.10
2019-02-18T05:37:42.632Z,27.70
2019-02-18T05:40:12.967Z,28.57
2019-02-18T05:42:42.666Z,26.87
2019-02-18T05:45:12.877Z,28.30
2019-02-18T05:47:43.204Z,27.07
2019-02-18T05:50:13.543Z,28.93
2019-02-18T05:52:43.885Z,28.23
2019-02-18T05:55:14.192Z,28.87
2019-02-18T05:57:44.514Z,28.20
2019-02-18T06:00:15.767Z,29.00
2019-02-18T06:02:46.083Z,28.80
2019-02-18T06:05:16.433Z,28.07
2019-02-18T06:07:46.720Z,28.77
2019-02-18T06:10:17.231Z,28.63
2019-02-18T06:12:47.486Z,31.77
2019-02-18T06:15:17.807Z,31.50
2019-02-18T06:17:48.129Z,34.13
2019-02-18T06:20:18.435Z,31.80
2019-02-18T06:22:48.765Z,31.47
2019-02-18T06:25:19.092Z,32.27
2019-02-18T06:27:51.539Z,35.03
2019-02-18T06:30:21.375Z,31.50
2019-02-18T06:32:51.729Z,31.93
2019-02-18T06:35:21.383Z,31.53
2019-02-18T06:37:51.597Z,30.10
2019-02-18T06:40:21.309Z,29.43
2019-02-18T06:42:51.534Z,28.97
2019-02-18T06:45:40.198Z,30.53
2019-02-18T06:48:33.120Z,29.63
2019-02-18T06:51:02.715Z,30.73
2019-02-18T06:53:32.272Z,29.70
2019-02-18T06:56:02.739Z,31.23
2019-02-18T06:58:46.063Z,31.40
2019-02-18T07:01:35.329Z,31.93
2019-02-18T07:04:23.998Z,30.55
2019-02-18T07:07:30.739Z,31.43
2019-02-18T07:10:29.019Z,29.70
2019-02-18T07:12:59.378Z,30.17
2019-02-18T07:15:29.700Z,31.50
2019-02-18T07:18:00.031Z,29.80
2019-02-18T07:20:30.339Z,29.90
2019-02-18T07:23:00.703Z,28.70
2019-02-18T07:25:31.018Z,27.73
2019-02-18T07:28:01.339Z,27.97
2019-02-18T07:30:31.668Z,27.67
2019-02-18T07:33:02.019Z,28.40
2019-02-18T07:35:32.313Z,28.87
2019-02-18T07:38:02.625Z,27.50
2019-02-18T07:40:32.266Z,28.97
2019-02-18T07:43:02.575Z,28.00
2019-02-18T07:45:32.952Z,29.07
2019-02-18T07:48:03.336Z,28.07
2019-02-18T07:50:33.031Z,30.77
2019-02-18T07:53:02.638Z,28.67
2019-02-18T07:55:32.933Z,28.00
2019-02-18T07:58:03.287Z,28.47
2019-02-18T08:00:33.611Z,26.83
2019-02-18T08:03:04.023Z,26.00
2019-02-18T08:05:33.799Z,23.87
2019-02-18T08:08:04.028Z,24.77
2019-02-18T08:10:33.704Z,25.57
2019-02-18T08:13:03.988Z,25.17
2019-02-18T08:15:33.704Z,23.97
2019-02-18T08:18:04.011Z,25.30
2019-02-18T08:20:33.699Z,24.85
2019-02-18T08:23:03.278Z,24.33
2019-02-18T08:25:32.871Z,23.53
2019-02-18T08:28:02.438Z,25.17
2019-02-18T08:30:32.154Z,25.27
2019-02-18T08:33:02.335Z,26.37
2019-02-18T08:35:32.655Z,25.45
2019-02-18T08:38:02.999Z,23.90
2019-02-18T08:40:32.653Z,25.37
2019-02-18T08:43:02.991Z,23.90
2019-02-18T08:45:33.292Z,23.33
2019-02-18T08:48:02.998Z,22.40
2019-02-18T08:50:32.570Z,21.90
2019-02-18T08:53:03.023Z,19.23
2019-02-18T08:55:33.527Z,19.80
2019-02-18T08:58:03.867Z,18.83
2019-02-18T09:00:33.527Z,18.27
2019-02-18T09:03:03.120Z,19.10
2019-02-18T09:05:33.352Z,18.50
2019-02-18T09:08:03.035Z,18.37
2019-02-18T09:10:34.087Z,19.17
2019-02-18T09:13:04.626Z,19.13
2019-02-18T09:15:34.288Z,18.53
2019-02-18T09:18:04.513Z,18.60
2019-02-18T09:20:34.256Z,18.43
2019-02-18T09:23:15.430Z,20.63
2019-02-18T09:25:53.331Z,18.67
2019-02-18T09:28:22.939Z,18.83
2019-02-18T09:30:54.630Z,18.10
2019-02-18T09:33:25.059Z,18.07
2019-02-18T09:35:54.718Z,18.30
2019-02-18T09:38:25.665Z,17.80
2019-02-18T09:40:56.060Z,17.80
2019-02-18T09:43:25.766Z,19.25
2019-02-18T09:45:55.363Z,19.03
2019-02-18T09:48:24.962Z,17.93
2019-02-18T09:50:54.551Z,18.67
2019-02-18T09:53:24.793Z,18.80
2019-02-18T09:55:54.457Z,17.48
2019-02-18T09:58:24.663Z,17.53
2019-02-18T10:00:55.017Z,15.30
2019-02-18T10:03:31.669Z,14.17
2019-02-18T10:05:55.905Z,13.70
2019-02-18T10:08:25.467Z,12.77
2019-02-18T10:10:56.355Z,11.30
2019-02-18T10:13:26.195Z,12.40
2019-02-18T10:15:56.441Z,13.07
2019-02-18T10:18:26.640Z,12.00
2019-02-18T10:20:56.279Z,12.40
2019-02-18T10:23:25.853Z,12.35
2019-02-18T10:25:55.468Z,13.40
2019-02-18T10:28:25.065Z,14.30
2019-02-18T10:30:55.363Z,13.20
2019-02-18T10:33:25.087Z,12.90
2019-02-18T10:35:54.732Z,13.30
2019-02-18T10:38:25.048Z,13.20
2019-02-18T10:41:06.104Z,14.63
2019-02-18T10:43:32.417Z,14.00
2019-02-18T10:45:57.855Z,13.40
2019-02-18T10:48:28.341Z,14.67
2019-02-18T10:50:57.989Z,15.53
2019-02-18T10:53:27.709Z,15.93
2019-02-18T10:55:57.997Z,15.07
2019-02-18T10:58:28.403Z,15.70
2019-02-18T11:00:58.077Z,14.57
2019-02-18T11:03:28.338Z,15.93
2019-02-18T11:05:58.040Z,14.53
2019-02-18T11:08:27.590Z,15.17
2019-02-18T11:10:57.275Z,16.93
2019-02-18T11:13:27.512Z,16.15
2019-02-18T11:15:57.210Z,16.73
2019-02-18T11:18:26.868Z,16.53
2019-02-18T11:20:56.435Z,16.93
2019-02-18T11:23:26.338Z,16.97
2019-02-18T11:25:55.963Z,16.73
2019-02-18T11:28:25.572Z,17.40
2019-02-18T11:30:55.143Z,16.40
2019-02-18T11:33:24.767Z,16.12
2019-02-18T11:35:54.343Z,16.13
2019-02-18T11:38:23.903Z,17.53
2019-02-18T11:40:53.548Z,16.20
2019-02-18T11:43:23.786Z,17.33
2019-02-18T11:45:54.022Z,16.87
2019-02-18T11:48:24.285Z,16.00
2019-02-18T11:50:54.930Z,15.17
2019-02-18T11:53:24.620Z,15.63
2019-02-18T11:55:55.163Z,15.40
2019-02-18T11:58:24.855Z,15.47
2019-02-18T12:00:54.443Z,14.80
2019-02-18T12:03:24.131Z,16.70
2019-02-18T12:05:54.787Z,14.43
2019-02-18T12:08:24.622Z,14.50
2019-02-18T12:10:54.864Z,15.10
2019-02-18T12:13:25.172Z,15.83
2019-02-18T12:15:54.875Z,14.73
2019-02-18T12:18:24.487Z,13.77
2019-02-18T12:20:54.066Z,12.97
2019-02-18T12:23:23.730Z,13.67
2019-02-18T12:25:53.279Z,12.73
2019-02-18T12:28:22.991Z,12.40
2019-02-18T12:30:53.491Z,11.20
2019-02-18T12:33:23.211Z,13.07
2019-02-18T12:35:54.989Z,12.97
2019-02-18T12:38:29.503Z,11.25
2019-02-18T12:41:02.811Z,11.50
2019-02-18T12:43:35.290Z,10.50
2019-02-18T12:46:15.746Z,11.47
2019-02-18T12:48:49.169Z,11.03
2019-02-18T12:51:26.723Z,11.80
2019-02-18T12:56:45.752Z,11.23
2019-02-18T12:59:16.697Z,9.93
2019-02-18T12:59:28.762Z,10.60
2019-02-18T13:02:01.562Z,10.70
2019-02-18T13:04:40.155Z,10.57
2019-02-18T13:07:17.824Z,11.53
2019-02-18T13:09:50.161Z,11.27
2019-02-18T13:12:20.639Z,12.10
2019-02-18T13:14:51.260Z,10.70
2019-02-18T13:17:26.747Z,11.03
2019-02-18T13:19:58.003Z,10.70
2019-02-18T13:22:29.366Z,9.70
2019-02-18T13:25:03.409Z,8.47
2019-02-18T13:27:37.110Z,7.83
2019-02-18T13:30:11.118Z,8.33
2019-02-18T13:32:43.055Z,7.20
2019-02-18T13:35:17.199Z,7.90
2019-02-18T13:37:51.444Z,6.00
2019-02-18T13:40:25.698Z,6.20
2019-02-18T13:42:56.754Z,5.90
2019-02-18T13:45:27.705Z,6.33
2019-02-18T13:47:59.922Z,4.57
2019-02-18T13:50:32.589Z,4.87
2019-02-18T13:53:03.643Z,3.80
2019-02-18T13:55:35.045Z,3.90
2019-02-18T13:58:06.031Z,4.47
2019-02-18T14:00:38.463Z,3.87
2019-02-18T14:03:10.386Z,4.57
2019-02-18T14:05:42.950Z,3.60
2019-02-18T14:08:16.075Z,2.80
2019-02-18T14:10:49.793Z,3.47
2019-02-18T14:13:23.372Z,2.70
2019-02-18T14:15:55.115Z,2.10
2019-02-18T14:18:26.063Z,3.00
2019-02-18T14:20:56.771Z,2.10
2019-02-18T14:23:27.440Z,1.77
2019-02-18T14:25:58.031Z,1.73
2019-02-18T14:28:29.895Z,1.55
2019-02-18T14:31:02.769Z,1.90
2019-02-18T14:33:37.129Z,1.50
2019-02-18T14:36:10.884Z,1.77
2019-02-18T14:38:42.182Z,1.30
2019-02-18T14:41:17.020Z,1.20
2019-02-18T14:43:49.490Z,1.50
2019-02-18T14:46:23.633Z,1.50
2019-02-18T14:48:57.591Z,1.63
2019-02-18T14:51:28.619Z,1.63
2019-02-18T14:53:59.814Z,2.03
2019-02-18T14:56:37.268Z,1.17
2019-02-18T14:59:09.311Z,1.37
2019-02-18T15:01:42.138Z,1.30
2019-02-18T15:04:14.266Z,1.67
2019-02-18T15:06:46.597Z,1.13
2019-02-18T15:09:21.879Z,1.40
2019-02-18T15:11:55.050Z,1.30
2019-02-18T15:14:28.266Z,0.90
2019-02-18T15:17:02.384Z,1.13
2019-02-18T15:19:32.875Z,1.00
2019-02-18T15:22:04.981Z,1.53
2019-02-18T15:24:37.623Z,0.82
2019-02-18T15:27:10.428Z,0.90
2019-02-18T15:29:41.426Z,0.97
2019-02-18T15:32:15.401Z,1.87
2019-02-18T15:34:47.374Z,1.43
2019-02-18T15:37:18.032Z,0.80
2019-02-18T15:39:48.020Z,0.70
2019-02-18T15:42:17.999Z,1.17
2019-02-18T15:44:48.464Z,0.67
2019-02-18T15:50:16.227Z,0.90
2019-02-18T15:52:47.435Z,1.33
2019-02-18T15:55:21.320Z,1.43
2019-02-18T15:57:53.791Z,0.70
2019-02-18T16:00:25.076Z,0.70
2019-02-18T16:02:55.638Z,1.20
2019-02-18T16:05:26.627Z,0.70
2019-02-18T16:07:56.582Z,1.87
2019-02-18T16:10:26.179Z,1.40
2019-02-18T16:12:55.763Z,1.60
2019-02-18T16:15:25.818Z,0.80
2019-02-18T16:17:55.394Z,0.70
2019-02-18T16:20:24.999Z,0.80
2019-02-18T16:22:54.621Z,1.00
2019-02-18T16:25:24.255Z,1.93
2019-02-18T16:27:53.879Z,2.13
2019-02-18T16:30:23.763Z,1.37
2019-02-18T16:32:54.029Z,1.60
2019-02-18T16:35:26.437Z,1.87
2019-02-18T16:37:56.118Z,1.43
2019-02-18T16:40:27.338Z,1.80
2019-02-18T16:43:02.429Z,1.23
2019-02-18T16:45:35.978Z,1.67
2019-02-18T16:48:06.815Z,1.67
2019-02-18T16:50:37.987Z,2.37
2019-02-18T16:53:07.571Z,0.80
2019-02-18T16:55:37.406Z,1.00
2019-02-18T16:58:06.978Z,0.80
2019-02-18T17:00:37.228Z,0.80
2019-02-18T17:03:06.830Z,1.20
2019-02-18T17:05:36.458Z,1.17
2019-02-18T17:08:07.003Z,0.80
2019-02-18T17:10:36.600Z,1.20
2019-02-18T17:13:10.024Z,1.03
2019-02-18T17:15:37.379Z,1.20
2019-02-18T17:18:07.022Z,1.13
2019-02-18T17:20:37.043Z,0.70
2019-02-18T17:23:07.955Z,1.60
2019-02-18T17:25:37.812Z,0.85
2019-02-18T17:28:07.439Z,1.23
2019-02-18T17:30:37.056Z,1.10
2019-02-18T17:33:07.367Z,0.80
2019-02-18T17:35:37.046Z,0.70
2019-02-18T17:38:07.170Z,0.67
2019-02-18T17:40:36.815Z,0.50
2019-02-18T17:43:06.420Z,0.83
2019-02-18T17:45:36.491Z,1.20
2019-02-18T17:48:06.079Z,0.77
2019-02-18T17:50:36.512Z,1.13
2019-02-18T17:53:06.766Z,1.33
2019-02-18T17:55:36.408Z,0.83
2019-02-18T17:58:05.995Z,1.93
2019-02-18T18:00:36.920Z,0.60
2019-02-18T18:03:06.515Z,0.63
2019-02-18T18:05:36.140Z,0.90
2019-02-18T18:08:08.592Z,0.93
2019-02-18T18:10:54.231Z,0.77
2019-02-18T18:13:25.365Z,0.80
2019-02-18T18:15:58.785Z,0.73
2019-02-18T18:18:30.284Z,0.83
2019-02-18T18:20:59.988Z,0.90
2019-02-18T18:23:30.259Z,0.87
2019-02-18T18:26:00.017Z,0.80
2019-02-18T18:28:29.702Z,1.60
2019-02-18T18:30:59.780Z,1.13
2019-02-18T18:33:30.042Z,1.13
2019-02-18T18:35:59.769Z,1.53
2019-02-18T18:38:29.402Z,1.20
2019-02-18T18:40:59.091Z,1.50
2019-02-18T18:43:33.867Z,1.80
2019-02-18T18:46:00.030Z,2.00
2019-02-18T18:48:29.806Z,2.00
2019-02-18T18:51:09.081Z,2.37
2019-02-18T18:53:43.682Z,2.77
2019-02-18T18:56:14.438Z,2.10
2019-02-18T18:59:05.658Z,1.80
2019-02-18T19:01:40.309Z,2.23
2019-02-18T19:04:51.507Z,2.27
2019-02-18T19:07:38.628Z,1.93
2019-02-18T19:14:09.330Z,1.53
2019-02-18T19:17:46.537Z,1.30
2019-02-18T19:20:32.300Z,1.70
2019-02-18T19:23:03.533Z,1.53
2019-02-18T19:25:50.210Z,1.30
2019-02-18T19:28:49.385Z,1.70
2019-02-18T19:32:34.135Z,1.27
2019-02-18T19:34:46.133Z,1.12
2019-02-18T19:37:57.510Z,1.17
2019-02-18T19:40:35.708Z,1.60
2019-02-18T19:43:34.147Z,1.30
2019-02-18T19:46:04.719Z,1.20
2019-02-18T19:51:43.651Z,1.40
2019-02-18T19:54:19.338Z,1.60
2019-02-18T19:57:17.207Z,1.07
2019-02-18T19:59:50.856Z,1.20
2019-02-18T20:02:22.182Z,1.30
2019-02-18T20:04:52.755Z,1.93
2019-02-18T20:07:22.494Z,0.90
2019-02-18T20:09:52.079Z,1.83
2019-02-18T20:12:21.700Z,1.63
2019-02-18T20:14:51.283Z,1.20
2019-02-18T20:17:20.931Z,1.40
2019-02-18T20:19:50.503Z,1.40
2019-02-18T20:22:20.526Z,1.83
2019-02-18T20:24:50.092Z,1.97
2019-02-18T20:27:21.342Z,2.47
2019-02-18T20:29:50.915Z,3.70
2019-02-18T20:32:21.744Z,2.23
2019-02-18T20:34:51.433Z,3.63
2019-02-18T20:37:21.035Z,1.80
2019-02-18T20:39:50.671Z,2.47
2019-02-18T20:42:20.453Z,2.20
2019-02-18T20:44:50.043Z,2.47
2019-02-18T20:47:21.449Z,1.63
2019-02-18T20:49:51.799Z,3.50
2019-02-18T20:52:21.498Z,2.55
2019-02-18T20:54:51.723Z,2.60
2019-02-18T20:57:21.397Z,2.53
2019-02-18T20:59:51.988Z,2.50
2019-02-18T21:02:22.016Z,2.80
2019-02-18T21:04:52.277Z,2.30
2019-02-18T21:07:21.969Z,2.03
2019-02-18T21:09:52.264Z,3.27
2019-02-18T21:12:21.972Z,2.97
2019-02-18T21:14:52.603Z,2.40
2019-02-18T21:17:22.311Z,2.47
2019-02-18T21:19:52.659Z,2.77
2019-02-18T21:22:22.384Z,3.10
2019-02-18T21:24:51.958Z,2.40
2019-02-18T21:27:22.710Z,2.90
2019-02-18T21:29:52.431Z,2.80
2019-02-18T21:32:22.207Z,3.60
2019-02-18T21:34:51.831Z,3.73
2019-02-18T21:37:21.435Z,4.60
2019-02-18T21:39:51.047Z,3.13
2019-02-18T21:42:21.211Z,3.07
2019-02-18T21:44:51.489Z,3.83
2019-02-18T21:47:21.240Z,3.23
2019-02-18T21:49:51.510Z,2.67
2019-02-18T21:52:21.851Z,2.20
2019-02-18T21:54:52.171Z,2.90
2019-02-18T21:57:22.716Z,2.80
2019-02-18T21:59:52.415Z,3.23
2019-02-18T22:02:23.375Z,2.87
2019-02-18T22:04:53.179Z,2.87
2019-02-18T22:07:22.780Z,2.90
2019-02-18T22:09:52.525Z,3.20
2019-02-18T22:12:22.127Z,3.43
2019-02-18T22:14:51.747Z,3.93
2019-02-18T22:17:21.459Z,4.97
2019-02-18T22:19:51.074Z,5.17
2019-02-18T22:22:20.766Z,4.33
2019-02-18T22:24:50.983Z,4.70
2019-02-18T22:27:21.273Z,4.47
2019-02-18T22:29:51.630Z,4.97
2019-02-18T22:32:21.351Z,6.30
2019-02-18T22:34:51.771Z,5.03
2019-02-18T22:37:22.147Z,5.87
2019-02-18T22:39:52.134Z,5.13
2019-02-18T22:42:22.481Z,5.23
2019-02-18T22:44:52.159Z,4.97
2019-02-18T22:47:22.528Z,5.13
2019-02-18T22:49:52.198Z,4.60
2019-02-18T22:52:22.481Z,4.87
2019-02-18T22:54:52.434Z,4.77
2019-02-18T22:57:22.002Z,4.80
2019-02-18T22:59:51.605Z,4.10
2019-02-18T23:02:21.851Z,4.43
2019-02-18T23:04:51.627Z,3.87
2019-02-18T23:07:21.199Z,4.43
2019-02-18T23:09:51.270Z,3.43
2019-02-18T23:12:21.698Z,4.33
2019-02-18T23:14:51.370Z,3.53
2019-02-18T23:17:21.234Z,3.90
2019-02-18T23:19:51.503Z,3.47
2019-02-18T23:22:21.166Z,3.63
2019-02-18T23:24:52.030Z,5.03
2019-02-18T23:27:21.718Z,4.60
2019-02-18T23:29:51.279Z,4.50
2019-02-18T23:32:21.542Z,4.10
2019-02-18T23:34:51.207Z,5.40
2019-02-18T23:37:21.459Z,5.70
2019-02-18T23:39:51.826Z,5.13
2019-02-18T23:42:21.504Z,5.10
2019-02-18T23:44:59.012Z,5.63
2019-02-18T23:47:23.699Z,5.93
2019-02-18T23:49:54.100Z,5.80
2019-02-18T23:52:23.758Z,6.37
2019-02-18T23:54:53.983Z,7.43
2019-02-18T23:57:23.662Z,6.53
2019-02-18T23:59:53.297Z,6.20
